sensor_id;sensor_type;location;lat;lon;timestamp;P1;durP1;ratioP1;P2;durP2;ratioP2
52940;SDS011;56784;53.360;6.464;2022-07-04T00:00:58;11.38;;;5.68;;
52940;SDS011;56784;53.360;6.464;2022-07-04T00:03:24;9.55;;;5.93;;
52940;SDS011;56784;53.360;6.464;2022-07-04T00:05:50;12.32;;;5.57;;
52940;SDS011;56784;53.360;6.464;2022-07-04T00:08:16;9.93;;;5.75;;
52940;SDS011;56784;53.360;6.464;2022-07-04T00:10:41;7.63;;;6.07;;
52940;SDS011;56784;53.360;6.464;2022-07-04T00:13:07;11.05;;;5.65;;
52940;SDS011;56784;53.360;6.464;2022-07-04T00:15:33;11.93;;;6.05;;
52940;SDS011;56784;53.360;6.464;2022-07-04T00:17:59;11.10;;;6.65;;
52940;SDS011;56784;53.360;6.464;2022-07-04T00:20:24;8.68;;;6.05;;
52940;SDS011;56784;53.360;6.464;2022-07-04T00:22:50;13.10;;;6.55;;
52940;SDS011;56784;53.360;6.464;2022-07-04T00:25:16;10.00;;;5.90;;
52940;SDS011;56784;53.360;6.464;2022-07-04T00:27:42;9.07;;;5.32;;
52940;SDS011;56784;53.360;6.464;2022-07-04T00:30:08;13.50;;;5.82;;
52940;SDS011;56784;53.360;6.464;2022-07-04T00:32:34;7.15;;;6.07;;
52940;SDS011;56784;53.360;6.464;2022-07-04T00:35:00;9.55;;;6.25;;
52940;SDS011;56784;53.360;6.464;2022-07-04T00:37:26;7.68;;;6.03;;
52940;SDS011;56784;53.360;6.464;2022-07-04T00:39:52;8.88;;;5.75;;
52940;SDS011;56784;53.360;6.464;2022-07-04T00:42:20;12.68;;;5.85;;
52940;SDS011;56784;53.360;6.464;2022-07-04T00:44:46;8.32;;;5.85;;
52940;SDS011;56784;53.360;6.464;2022-07-04T00:47:12;10.43;;;6.13;;
52940;SDS011;56784;53.360;6.464;2022-07-04T00:49:37;9.00;;;5.88;;
52940;SDS011;56784;53.360;6.464;2022-07-04T00:52:05;8.90;;;5.57;;
52940;SDS011;56784;53.360;6.464;2022-07-04T00:54:31;11.07;;;5.97;;
52940;SDS011;56784;53.360;6.464;2022-07-04T00:56:58;11.68;;;6.47;;
52940;SDS011;56784;53.360;6.464;2022-07-04T00:59:24;12.68;;;5.63;;
52940;SDS011;56784;53.360;6.464;2022-07-04T01:01:51;7.03;;;5.50;;
52940;SDS011;56784;53.360;6.464;2022-07-04T01:04:16;9.32;;;5.82;;
52940;SDS011;56784;53.360;6.464;2022-07-04T01:06:43;8.13;;;5.45;;
52940;SDS011;56784;53.360;6.464;2022-07-04T01:09:09;7.07;;;5.35;;
52940;SDS011;56784;53.360;6.464;2022-07-04T01:11:35;11.07;;;5.75;;
52940;SDS011;56784;53.360;6.464;2022-07-04T01:14:01;8.18;;;5.60;;
52940;SDS011;56784;53.360;6.464;2022-07-04T01:16:27;7.35;;;5.20;;
52940;SDS011;56784;53.360;6.464;2022-07-04T01:18:54;8.80;;;5.53;;
52940;SDS011;56784;53.360;6.464;2022-07-04T01:21:20;10.25;;;5.30;;
52940;SDS011;56784;53.360;6.464;2022-07-04T01:23:46;9.02;;;5.03;;
52940;SDS011;56784;53.360;6.464;2022-07-04T01:26:12;7.75;;;5.07;;
52940;SDS011;56784;53.360;6.464;2022-07-04T01:28:39;8.75;;;5.55;;
52940;SDS011;56784;53.360;6.464;2022-07-04T01:31:05;12.85;;;5.65;;
52940;SDS011;56784;53.360;6.464;2022-07-04T01:33:31;12.23;;;5.85;;
52940;SDS011;56784;53.360;6.464;2022-07-04T01:35:58;10.95;;;5.65;;
52940;SDS011;56784;53.360;6.464;2022-07-04T01:38:24;9.38;;;6.25;;
52940;SDS011;56784;53.360;6.464;2022-07-04T01:40:50;15.07;;;6.50;;
52940;SDS011;56784;53.360;6.464;2022-07-04T01:43:16;12.38;;;5.78;;
52940;SDS011;56784;53.360;6.464;2022-07-04T01:45:42;12.40;;;5.90;;
52940;SDS011;56784;53.360;6.464;2022-07-04T01:48:08;9.80;;;5.72;;
52940;SDS011;56784;53.360;6.464;2022-07-04T01:50:35;11.50;;;5.50;;
52940;SDS011;56784;53.360;6.464;2022-07-04T01:53:02;9.30;;;6.10;;
52940;SDS011;56784;53.360;6.464;2022-07-04T01:55:28;10.57;;;5.60;;
52940;SDS011;56784;53.360;6.464;2022-07-04T01:57:55;11.10;;;5.40;;
52940;SDS011;56784;53.360;6.464;2022-07-04T02:00:21;8.73;;;6.28;;
52940;SDS011;56784;53.360;6.464;2022-07-04T02:03:06;8.48;;;5.32;;
52940;SDS011;56784;53.360;6.464;2022-07-04T02:05:32;8.27;;;5.93;;
52940;SDS011;56784;53.360;6.464;2022-07-04T02:07:58;10.65;;;6.38;;
52940;SDS011;56784;53.360;6.464;2022-07-04T02:10:24;9.20;;;6.22;;
52940;SDS011;56784;53.360;6.464;2022-07-04T02:12:50;10.70;;;6.25;;
52940;SDS011;56784;53.360;6.464;2022-07-04T02:15:34;10.80;;;6.22;;
52940;SDS011;56784;53.360;6.464;2022-07-04T02:18:02;13.18;;;6.10;;
52940;SDS011;56784;53.360;6.464;2022-07-04T02:20:32;13.05;;;6.38;;
52940;SDS011;56784;53.360;6.464;2022-07-04T02:22:58;10.60;;;6.30;;
52940;SDS011;56784;53.360;6.464;2022-07-04T02:25:25;9.25;;;5.88;;
52940;SDS011;56784;53.360;6.464;2022-07-04T02:27:50;8.02;;;5.93;;
52940;SDS011;56784;53.360;6.464;2022-07-04T02:30:16;11.93;;;6.63;;
52940;SDS011;56784;53.360;6.464;2022-07-04T02:32:42;12.65;;;6.90;;
52940;SDS011;56784;53.360;6.464;2022-07-04T02:35:08;9.65;;;6.55;;
52940;SDS011;56784;53.360;6.464;2022-07-04T02:37:35;8.18;;;6.07;;
52940;SDS011;56784;53.360;6.464;2022-07-04T02:40:02;11.05;;;6.20;;
52940;SDS011;56784;53.360;6.464;2022-07-04T02:42:29;10.73;;;6.75;;
52940;SDS011;56784;53.360;6.464;2022-07-04T02:44:55;10.63;;;6.85;;
52940;SDS011;56784;53.360;6.464;2022-07-04T02:47:21;14.73;;;6.75;;
52940;SDS011;56784;53.360;6.464;2022-07-04T02:49:47;9.77;;;6.97;;
52940;SDS011;56784;53.360;6.464;2022-07-04T02:52:13;7.97;;;6.35;;
52940;SDS011;56784;53.360;6.464;2022-07-04T02:54:40;9.32;;;6.55;;
52940;SDS011;56784;53.360;6.464;2022-07-04T02:57:07;11.07;;;6.88;;
52940;SDS011;56784;53.360;6.464;2022-07-04T02:59:33;9.68;;;6.65;;
52940;SDS011;56784;53.360;6.464;2022-07-04T03:01:59;11.20;;;6.85;;
52940;SDS011;56784;53.360;6.464;2022-07-04T03:04:25;15.60;;;6.85;;
52940;SDS011;56784;53.360;6.464;2022-07-04T03:06:50;10.57;;;6.32;;
52940;SDS011;56784;53.360;6.464;2022-07-04T03:09:16;12.30;;;7.57;;
52940;SDS011;56784;53.360;6.464;2022-07-04T03:11:43;10.63;;;7.50;;
52940;SDS011;56784;53.360;6.464;2022-07-04T03:14:09;9.15;;;6.80;;
52940;SDS011;56784;53.360;6.464;2022-07-04T03:16:35;10.45;;;6.97;;
52940;SDS011;56784;53.360;6.464;2022-07-04T03:19:01;12.93;;;7.80;;
52940;SDS011;56784;53.360;6.464;2022-07-04T03:21:27;13.65;;;7.68;;
52940;SDS011;56784;53.360;6.464;2022-07-04T03:23:53;14.07;;;7.30;;
52940;SDS011;56784;53.360;6.464;2022-07-04T03:26:25;7.93;;;6.68;;
52940;SDS011;56784;53.360;6.464;2022-07-04T03:28:56;12.93;;;6.75;;
52940;SDS011;56784;53.360;6.464;2022-07-04T03:31:22;15.02;;;7.03;;
52940;SDS011;56784;53.360;6.464;2022-07-04T03:33:48;9.73;;;7.28;;
52940;SDS011;56784;53.360;6.464;2022-07-04T03:36:15;11.50;;;7.70;;
52940;SDS011;56784;53.360;6.464;2022-07-04T03:38:41;12.05;;;7.47;;
52940;SDS011;56784;53.360;6.464;2022-07-04T03:41:07;10.77;;;7.30;;
52940;SDS011;56784;53.360;6.464;2022-07-04T03:43:33;12.13;;;7.50;;
52940;SDS011;56784;53.360;6.464;2022-07-04T03:45:58;14.55;;;8.57;;
52940;SDS011;56784;53.360;6.464;2022-07-04T03:48:24;14.27;;;7.75;;
52940;SDS011;56784;53.360;6.464;2022-07-04T03:50:50;10.80;;;7.78;;
52940;SDS011;56784;53.360;6.464;2022-07-04T03:53:16;11.98;;;7.80;;
52940;SDS011;56784;53.360;6.464;2022-07-04T03:55:42;9.85;;;7.85;;
52940;SDS011;56784;53.360;6.464;2022-07-04T03:58:08;11.57;;;7.57;;
52940;SDS011;56784;53.360;6.464;2022-07-04T04:00:34;10.73;;;7.70;;
52940;SDS011;56784;53.360;6.464;2022-07-04T04:03:00;9.77;;;7.30;;
52940;SDS011;56784;53.360;6.464;2022-07-04T04:05:26;10.13;;;7.15;;
52940;SDS011;56784;53.360;6.464;2022-07-04T04:07:59;13.63;;;7.90;;
52940;SDS011;56784;53.360;6.464;2022-07-04T04:10:27;11.27;;;8.05;;
52940;SDS011;56784;53.360;6.464;2022-07-04T04:12:54;13.60;;;8.15;;
52940;SDS011;56784;53.360;6.464;2022-07-04T04:15:21;10.60;;;7.38;;
52940;SDS011;56784;53.360;6.464;2022-07-04T04:17:51;10.82;;;7.47;;
52940;SDS011;56784;53.360;6.464;2022-07-04T04:20:20;11.88;;;8.00;;
52940;SDS011;56784;53.360;6.464;2022-07-04T04:22:46;12.35;;;7.63;;
52940;SDS011;56784;53.360;6.464;2022-07-04T04:25:12;11.18;;;8.55;;
52940;SDS011;56784;53.360;6.464;2022-07-04T04:27:37;14.05;;;8.27;;
52940;SDS011;56784;53.360;6.464;2022-07-04T04:30:04;12.82;;;8.75;;
52940;SDS011;56784;53.360;6.464;2022-07-04T04:32:30;11.77;;;8.32;;
52940;SDS011;56784;53.360;6.464;2022-07-04T04:34:57;13.70;;;8.82;;
52940;SDS011;56784;53.360;6.464;2022-07-04T04:37:22;12.88;;;8.00;;
52940;SDS011;56784;53.360;6.464;2022-07-04T04:39:48;9.38;;;7.68;;
52940;SDS011;56784;53.360;6.464;2022-07-04T04:42:14;12.18;;;8.18;;
52940;SDS011;56784;53.360;6.464;2022-07-04T04:44:40;10.88;;;8.07;;
52940;SDS011;56784;53.360;6.464;2022-07-04T04:47:06;12.68;;;8.90;;
52940;SDS011;56784;53.360;6.464;2022-07-04T04:49:31;15.63;;;8.40;;
52940;SDS011;56784;53.360;6.464;2022-07-04T04:51:57;11.55;;;7.88;;
52940;SDS011;56784;53.360;6.464;2022-07-04T04:54:23;12.65;;;8.30;;
52940;SDS011;56784;53.360;6.464;2022-07-04T04:56:49;14.50;;;8.20;;
52940;SDS011;56784;53.360;6.464;2022-07-04T04:59:14;13.27;;;8.60;;
52940;SDS011;56784;53.360;6.464;2022-07-04T05:01:40;15.55;;;9.05;;
52940;SDS011;56784;53.360;6.464;2022-07-04T05:04:06;11.85;;;7.55;;
52940;SDS011;56784;53.360;6.464;2022-07-04T05:06:32;10.98;;;7.28;;
52940;SDS011;56784;53.360;6.464;2022-07-04T05:08:58;15.32;;;7.32;;
52940;SDS011;56784;53.360;6.464;2022-07-04T05:11:23;13.23;;;7.60;;
52940;SDS011;56784;53.360;6.464;2022-07-04T05:13:49;8.23;;;6.45;;
52940;SDS011;56784;53.360;6.464;2022-07-04T05:16:15;10.02;;;5.32;;
52940;SDS011;56784;53.360;6.464;2022-07-04T05:18:41;10.38;;;5.10;;
52940;SDS011;56784;53.360;6.464;2022-07-04T05:21:07;9.50;;;4.80;;
52940;SDS011;56784;53.360;6.464;2022-07-04T05:23:32;9.50;;;4.88;;
52940;SDS011;56784;53.360;6.464;2022-07-04T05:25:58;9.52;;;4.72;;
52940;SDS011;56784;53.360;6.464;2022-07-04T05:28:24;12.02;;;4.45;;
52940;SDS011;56784;53.360;6.464;2022-07-04T05:30:50;7.43;;;4.10;;
52940;SDS011;56784;53.360;6.464;2022-07-04T05:33:15;6.45;;;3.65;;
52940;SDS011;56784;53.360;6.464;2022-07-04T05:35:41;9.13;;;3.70;;
52940;SDS011;56784;53.360;6.464;2022-07-04T05:38:07;6.32;;;3.03;;
52940;SDS011;56784;53.360;6.464;2022-07-04T05:40:33;5.40;;;2.75;;
52940;SDS011;56784;53.360;6.464;2022-07-04T05:42:59;6.82;;;3.67;;
52940;SDS011;56784;53.360;6.464;2022-07-04T05:45:25;6.70;;;3.10;;
52940;SDS011;56784;53.360;6.464;2022-07-04T05:47:50;9.38;;;3.80;;
52940;SDS011;56784;53.360;6.464;2022-07-04T05:50:16;7.93;;;3.90;;
52940;SDS011;56784;53.360;6.464;2022-07-04T05:52:42;12.07;;;3.40;;
52940;SDS011;56784;53.360;6.464;2022-07-04T05:55:08;8.27;;;3.50;;
52940;SDS011;56784;53.360;6.464;2022-07-04T05:57:34;5.25;;;3.20;;
52940;SDS011;56784;53.360;6.464;2022-07-04T06:00:01;5.70;;;3.53;;
52940;SDS011;56784;53.360;6.464;2022-07-04T06:02:27;7.57;;;3.25;;
52940;SDS011;56784;53.360;6.464;2022-07-04T06:04:53;8.40;;;3.38;;
52940;SDS011;56784;53.360;6.464;2022-07-04T06:07:19;8.25;;;3.33;;
52940;SDS011;56784;53.360;6.464;2022-07-04T06:09:45;7.25;;;3.17;;
52940;SDS011;56784;53.360;6.464;2022-07-04T06:12:11;9.18;;;3.42;;
52940;SDS011;56784;53.360;6.464;2022-07-04T06:14:37;5.07;;;3.63;;
52940;SDS011;56784;53.360;6.464;2022-07-04T06:17:03;10.10;;;3.70;;
52940;SDS011;56784;53.360;6.464;2022-07-04T06:19:29;8.35;;;3.72;;
52940;SDS011;56784;53.360;6.464;2022-07-04T06:21:55;6.97;;;3.35;;
52940;SDS011;56784;53.360;6.464;2022-07-04T06:24:21;7.43;;;3.47;;
52940;SDS011;56784;53.360;6.464;2022-07-04T06:26:46;7.78;;;3.50;;
52940;SDS011;56784;53.360;6.464;2022-07-04T06:29:12;9.43;;;3.00;;
52940;SDS011;56784;53.360;6.464;2022-07-04T06:31:38;10.27;;;3.50;;
52940;SDS011;56784;53.360;6.464;2022-07-04T06:34:04;7.13;;;3.13;;
52940;SDS011;56784;53.360;6.464;2022-07-04T06:36:48;9.73;;;3.60;;
52940;SDS011;56784;53.360;6.464;2022-07-04T06:39:14;6.88;;;3.47;;
52940;SDS011;56784;53.360;6.464;2022-07-04T06:41:40;7.32;;;3.22;;
52940;SDS011;56784;53.360;6.464;2022-07-04T06:44:06;6.97;;;3.10;;
52940;SDS011;56784;53.360;6.464;2022-07-04T06:46:32;5.28;;;3.13;;
52940;SDS011;56784;53.360;6.464;2022-07-04T06:48:57;8.07;;;3.33;;
52940;SDS011;56784;53.360;6.464;2022-07-04T06:51:23;8.20;;;3.75;;
52940;SDS011;56784;53.360;6.464;2022-07-04T06:53:49;6.88;;;3.25;;
52940;SDS011;56784;53.360;6.464;2022-07-04T06:56:16;7.13;;;3.28;;
52940;SDS011;56784;53.360;6.464;2022-07-04T06:58:43;6.50;;;3.33;;
52940;SDS011;56784;53.360;6.464;2022-07-04T07:01:09;7.80;;;3.35;;
52940;SDS011;56784;53.360;6.464;2022-07-04T07:03:35;6.40;;;3.20;;
52940;SDS011;56784;53.360;6.464;2022-07-04T07:06:01;9.93;;;3.47;;
52940;SDS011;56784;53.360;6.464;2022-07-04T07:08:30;8.98;;;3.75;;
52940;SDS011;56784;53.360;6.464;2022-07-04T07:10:56;4.88;;;2.90;;
52940;SDS011;56784;53.360;6.464;2022-07-04T07:13:37;6.13;;;3.30;;
52940;SDS011;56784;53.360;6.464;2022-07-04T07:16:10;7.88;;;2.97;;
52940;SDS011;56784;53.360;6.464;2022-07-04T07:18:36;8.13;;;3.28;;
52940;SDS011;56784;53.360;6.464;2022-07-04T07:21:02;8.82;;;2.55;;
52940;SDS011;56784;53.360;6.464;2022-07-04T07:23:28;6.45;;;2.60;;
52940;SDS011;56784;53.360;6.464;2022-07-04T07:25:54;6.63;;;2.75;;
52940;SDS011;56784;53.360;6.464;2022-07-04T07:28:20;8.07;;;3.03;;
52940;SDS011;56784;53.360;6.464;2022-07-04T07:30:46;10.02;;;2.90;;
52940;SDS011;56784;53.360;6.464;2022-07-04T07:33:12;4.97;;;2.40;;
52940;SDS011;56784;53.360;6.464;2022-07-04T07:35:37;6.57;;;2.70;;
52940;SDS011;56784;53.360;6.464;2022-07-04T07:38:03;5.95;;;2.72;;
52940;SDS011;56784;53.360;6.464;2022-07-04T07:40:31;8.00;;;2.78;;
52940;SDS011;56784;53.360;6.464;2022-07-04T07:42:57;7.53;;;2.53;;
52940;SDS011;56784;53.360;6.464;2022-07-04T07:45:23;6.85;;;2.28;;
52940;SDS011;56784;53.360;6.464;2022-07-04T07:47:48;5.70;;;2.75;;
52940;SDS011;56784;53.360;6.464;2022-07-04T07:50:14;9.10;;;2.95;;
52940;SDS011;56784;53.360;6.464;2022-07-04T07:52:40;7.90;;;2.80;;
52940;SDS011;56784;53.360;6.464;2022-07-04T07:55:06;6.63;;;2.38;;
52940;SDS011;56784;53.360;6.464;2022-07-04T07:57:32;9.00;;;3.35;;
52940;SDS011;56784;53.360;6.464;2022-07-04T07:59:58;4.30;;;2.70;;
52940;SDS011;56784;53.360;6.464;2022-07-04T08:02:24;7.57;;;3.00;;
52940;SDS011;56784;53.360;6.464;2022-07-04T08:05:09;7.47;;;2.30;;
52940;SDS011;56784;53.360;6.464;2022-07-04T08:07:36;8.00;;;2.30;;
52940;SDS011;56784;53.360;6.464;2022-07-04T08:10:02;4.20;;;1.75;;
52940;SDS011;56784;53.360;6.464;2022-07-04T08:12:29;5.20;;;1.95;;
52940;SDS011;56784;53.360;6.464;2022-07-04T08:14:55;6.07;;;1.80;;
52940;SDS011;56784;53.360;6.464;2022-07-04T08:17:21;4.72;;;1.73;;
52940;SDS011;56784;53.360;6.464;2022-07-04T08:19:46;5.10;;;1.58;;
52940;SDS011;56784;53.360;6.464;2022-07-04T08:22:13;2.97;;;1.50;;
52940;SDS011;56784;53.360;6.464;2022-07-04T08:24:39;3.95;;;1.70;;
52940;SDS011;56784;53.360;6.464;2022-07-04T08:27:05;5.07;;;1.77;;
52940;SDS011;56784;53.360;6.464;2022-07-04T08:29:30;2.45;;;1.60;;
52940;SDS011;56784;53.360;6.464;2022-07-04T08:31:57;3.88;;;1.83;;
52940;SDS011;56784;53.360;6.464;2022-07-04T08:34:23;2.83;;;1.50;;
52940;SDS011;56784;53.360;6.464;2022-07-04T08:36:49;6.70;;;1.50;;
52940;SDS011;56784;53.360;6.464;2022-07-04T08:39:15;4.18;;;1.48;;
52940;SDS011;56784;53.360;6.464;2022-07-04T08:41:42;7.25;;;1.38;;
52940;SDS011;62001;53.366;6.636;2022-07-04T08:44:08;5.38;;;1.50;;
52940;SDS011;62001;53.366;6.636;2022-07-04T08:46:37;4.80;;;1.33;;
52940;SDS011;62001;53.366;6.636;2022-07-04T08:49:08;3.47;;;1.30;;
52940;SDS011;62001;53.366;6.636;2022-07-04T08:51:45;1.77;;;1.20;;
52940;SDS011;62001;53.366;6.636;2022-07-04T08:54:26;3.05;;;1.20;;
52940;SDS011;62001;53.366;6.636;2022-07-04T08:57:13;3.38;;;0.90;;
52940;SDS011;62001;53.366;6.636;2022-07-04T08:59:57;4.47;;;1.10;;
52940;SDS011;62001;53.366;6.636;2022-07-04T09:02:24;4.03;;;1.20;;
52940;SDS011;62001;53.366;6.636;2022-07-04T09:07:19;4.00;;;0.88;;
52940;SDS011;62001;53.366;6.636;2022-07-04T09:09:45;1.83;;;0.88;;
52940;SDS011;62001;53.366;6.636;2022-07-04T09:12:11;2.60;;;1.10;;
52940;SDS011;62001;53.366;6.636;2022-07-04T09:14:38;3.33;;;1.02;;
52940;SDS011;62001;53.366;6.636;2022-07-04T09:17:04;2.33;;;1.00;;
52940;SDS011;62001;53.366;6.636;2022-07-04T09:19:31;3.28;;;1.10;;
52940;SDS011;62001;53.366;6.636;2022-07-04T09:22:01;1.23;;;0.95;;
52940;SDS011;62001;53.366;6.636;2022-07-04T09:24:45;1.50;;;0.95;;
52940;SDS011;62001;53.366;6.636;2022-07-04T09:27:37;5.55;;;0.80;;
52940;SDS011;62001;53.366;6.636;2022-07-04T09:30:03;5.65;;;1.20;;
52940;SDS011;62001;53.366;6.636;2022-07-04T09:32:37;4.22;;;0.90;;
52940;SDS011;62001;53.366;6.636;2022-07-04T09:37:49;2.23;;;0.87;;
52940;SDS011;62001;53.366;6.636;2022-07-04T09:40:33;3.17;;;1.05;;
52940;SDS011;62001;53.366;6.636;2022-07-04T09:43:20;2.95;;;1.10;;
52940;SDS011;62001;53.366;6.636;2022-07-04T09:45:56;4.53;;;1.10;;
52940;SDS011;62001;53.366;6.636;2022-07-04T09:48:49;2.20;;;0.95;;
52940;SDS011;62001;53.366;6.636;2022-07-04T09:51:15;3.58;;;1.02;;
52940;SDS011;62001;53.366;6.636;2022-07-04T09:54:04;3.22;;;1.20;;
52940;SDS011;62001;53.366;6.636;2022-07-04T09:56:43;4.05;;;1.17;;
52940;SDS011;62001;53.366;6.636;2022-07-04T09:59:11;2.70;;;1.10;;
52940;SDS011;62001;53.366;6.636;2022-07-04T10:01:37;4.00;;;1.23;;
52940;SDS011;62001;53.366;6.636;2022-07-04T10:04:05;2.67;;;1.15;;
52940;SDS011;62001;53.366;6.636;2022-07-04T10:06:32;3.53;;;1.00;;
52940;SDS011;62001;53.366;6.636;2022-07-04T10:09:14;2.22;;;1.05;;
52940;SDS011;62001;53.366;6.636;2022-07-04T10:11:42;4.20;;;1.20;;
52940;SDS011;62001;53.366;6.636;2022-07-04T10:14:10;2.08;;;1.17;;
52940;SDS011;62001;53.366;6.636;2022-07-04T10:16:37;2.22;;;0.98;;
52940;SDS011;62001;53.366;6.636;2022-07-04T10:19:04;4.18;;;1.25;;
52940;SDS011;62001;53.366;6.636;2022-07-04T10:21:31;2.70;;;1.27;;
52940;SDS011;62001;53.366;6.636;2022-07-04T10:23:57;2.63;;;1.13;;
52940;SDS011;62001;53.366;6.636;2022-07-04T10:26:24;2.47;;;1.13;;
52940;SDS011;62001;53.366;6.636;2022-07-04T10:28:52;2.03;;;1.15;;
52940;SDS011;62001;53.366;6.636;2022-07-04T10:31:18;2.30;;;1.15;;
52940;SDS011;62001;53.366;6.636;2022-07-04T10:33:46;3.95;;;1.30;;
52940;SDS011;62001;53.366;6.636;2022-07-04T10:36:16;3.05;;;1.17;;
52940;SDS011;62001;53.366;6.636;2022-07-04T10:38:50;2.58;;;1.17;;
52940;SDS011;62001;53.366;6.636;2022-07-04T10:41:18;3.60;;;1.10;;
52940;SDS011;62001;53.366;6.636;2022-07-04T10:46:24;7.28;;;1.30;;
52940;SDS011;62001;53.366;6.636;2022-07-04T10:51:32;4.57;;;1.25;;
52940;SDS011;62001;53.366;6.636;2022-07-04T10:58:54;4.88;;;1.38;;
52940;SDS011;62001;53.366;6.636;2022-07-04T11:01:20;3.17;;;1.40;;
52940;SDS011;62001;53.366;6.636;2022-07-04T11:03:47;2.90;;;1.35;;
52940;SDS011;62001;53.366;6.636;2022-07-04T11:12:02;2.03;;;1.10;;
52940;SDS011;62001;53.366;6.636;2022-07-04T11:14:35;4.22;;;1.17;;
52940;SDS011;62001;53.366;6.636;2022-07-04T11:17:03;5.80;;;1.20;;
52940;SDS011;62001;53.366;6.636;2022-07-04T11:19:33;3.25;;;1.00;;
52940;SDS011;62001;53.366;6.636;2022-07-04T11:22:00;2.78;;;0.90;;
52940;SDS011;62001;53.366;6.636;2022-07-04T11:24:26;1.95;;;1.00;;
52940;SDS011;62001;53.366;6.636;2022-07-04T11:26:52;5.40;;;1.20;;
52940;SDS011;62001;53.366;6.636;2022-07-04T11:29:18;5.07;;;1.45;;
52940;SDS011;62001;53.366;6.636;2022-07-04T11:31:46;3.15;;;1.33;;
52940;SDS011;62001;53.366;6.636;2022-07-04T11:34:13;3.33;;;1.17;;
52940;SDS011;62001;53.366;6.636;2022-07-04T11:36:39;4.68;;;1.05;;
52940;SDS011;62001;53.366;6.636;2022-07-04T11:39:07;6.88;;;1.30;;
52940;SDS011;62001;53.366;6.636;2022-07-04T11:41:35;2.25;;;1.00;;
52940;SDS011;62001;53.366;6.636;2022-07-04T11:44:25;6.25;;;1.50;;
52940;SDS011;62001;53.366;6.636;2022-07-04T11:47:15;4.72;;;1.48;;
52940;SDS011;62001;53.366;6.636;2022-07-04T11:52:18;6.72;;;1.80;;
52940;SDS011;62001;53.366;6.636;2022-07-04T11:54:46;2.78;;;1.10;;
52940;SDS011;62001;53.366;6.636;2022-07-04T11:59:38;5.10;;;1.15;;
52940;SDS011;62001;53.366;6.636;2022-07-04T12:02:14;2.15;;;1.20;;
52940;SDS011;62001;53.366;6.636;2022-07-04T12:04:41;4.43;;;1.77;;
52940;SDS011;62001;53.366;6.636;2022-07-04T12:07:11;3.38;;;1.30;;
52940;SDS011;62001;53.366;6.636;2022-07-04T12:09:39;4.05;;;1.33;;
52940;SDS011;62001;53.366;6.636;2022-07-04T12:12:06;2.72;;;1.15;;
52940;SDS011;62001;53.366;6.636;2022-07-04T12:14:32;3.65;;;1.55;;
52940;SDS011;62001;53.366;6.636;2022-07-04T12:17:17;2.55;;;1.02;;
52940;SDS011;62001;53.366;6.636;2022-07-04T12:24:53;4.55;;;1.58;;
52940;SDS011;62001;53.366;6.636;2022-07-04T12:27:19;3.08;;;1.17;;
52940;SDS011;62001;53.366;6.636;2022-07-04T12:29:51;4.68;;;1.40;;
52940;SDS011;62001;53.366;6.636;2022-07-04T12:32:17;8.32;;;1.55;;
52940;SDS011;62001;53.366;6.636;2022-07-04T12:34:43;7.35;;;1.60;;
52940;SDS011;62001;53.366;6.636;2022-07-04T12:37:13;3.38;;;1.23;;
52940;SDS011;62001;53.366;6.636;2022-07-04T12:39:40;5.97;;;1.60;;
52940;SDS011;62001;53.366;6.636;2022-07-04T12:42:12;4.55;;;1.20;;
52940;SDS011;62001;53.366;6.636;2022-07-04T12:44:45;3.85;;;1.40;;
52940;SDS011;62001;53.366;6.636;2022-07-04T12:47:14;10.10;;;1.55;;
52940;SDS011;62001;53.366;6.636;2022-07-04T12:49:44;3.28;;;1.10;;
52940;SDS011;62001;53.366;6.636;2022-07-04T12:52:14;5.63;;;1.42;;
52940;SDS011;62001;53.366;6.636;2022-07-04T12:54:41;2.90;;;1.10;;
52940;SDS011;62001;53.366;6.636;2022-07-04T12:57:12;4.50;;;1.00;;
52940;SDS011;62001;53.366;6.636;2022-07-04T12:59:40;3.90;;;1.17;;
52940;SDS011;62001;53.366;6.636;2022-07-04T13:02:07;7.50;;;1.13;;
52940;SDS011;62001;53.366;6.636;2022-07-04T13:04:34;3.10;;;1.20;;
52940;SDS011;62001;53.366;6.636;2022-07-04T13:07:11;2.03;;;0.98;;
52940;SDS011;62001;53.366;6.636;2022-07-04T13:09:43;2.33;;;1.08;;
52940;SDS011;62001;53.366;6.636;2022-07-04T13:12:10;3.17;;;1.02;;
52940;SDS011;62001;53.366;6.636;2022-07-04T13:14:50;4.25;;;1.08;;
52940;SDS011;62001;53.366;6.636;2022-07-04T13:17:17;4.90;;;1.00;;
52940;SDS011;62001;53.366;6.636;2022-07-04T13:19:43;3.67;;;0.90;;
52940;SDS011;62001;53.366;6.636;2022-07-04T13:22:09;4.03;;;1.02;;
52940;SDS011;62001;53.366;6.636;2022-07-04T13:24:35;2.63;;;1.17;;
52940;SDS011;62001;53.366;6.636;2022-07-04T13:27:01;4.63;;;1.25;;
52940;SDS011;62001;53.366;6.636;2022-07-04T13:29:27;2.47;;;1.15;;
52940;SDS011;62001;53.366;6.636;2022-07-04T13:31:53;5.57;;;1.15;;
52940;SDS011;62001;53.366;6.636;2022-07-04T13:34:18;3.63;;;1.40;;
52940;SDS011;62001;53.366;6.636;2022-07-04T13:36:44;4.25;;;1.35;;
52940;SDS011;62001;53.366;6.636;2022-07-04T13:39:10;3.95;;;1.50;;
52940;SDS011;62001;53.366;6.636;2022-07-04T13:41:37;3.42;;;1.35;;
52940;SDS011;62001;53.366;6.636;2022-07-04T13:44:04;2.17;;;1.10;;
52940;SDS011;62001;53.366;6.636;2022-07-04T13:46:31;2.85;;;1.33;;
52940;SDS011;62001;53.366;6.636;2022-07-04T13:49:00;2.47;;;1.00;;
52940;SDS011;62001;53.366;6.636;2022-07-04T13:53:55;3.75;;;1.15;;
52940;SDS011;62001;53.366;6.636;2022-07-04T13:56:21;2.92;;;1.00;;
52940;SDS011;62001;53.366;6.636;2022-07-04T13:58:47;3.38;;;1.00;;
52940;SDS011;62001;53.366;6.636;2022-07-04T14:01:13;2.35;;;1.00;;
52940;SDS011;62001;53.366;6.636;2022-07-04T14:03:40;4.43;;;1.10;;
52940;SDS011;62001;53.366;6.636;2022-07-04T14:06:07;4.90;;;1.33;;
52940;SDS011;62001;53.366;6.636;2022-07-04T14:08:34;3.03;;;0.98;;
52940;SDS011;62001;53.366;6.636;2022-07-04T14:11:00;6.95;;;1.00;;
52940;SDS011;62001;53.366;6.636;2022-07-04T14:13:26;3.45;;;1.13;;
52940;SDS011;62001;53.366;6.636;2022-07-04T14:15:52;5.50;;;1.20;;
52940;SDS011;62001;53.366;6.636;2022-07-04T14:18:18;6.10;;;1.23;;
52940;SDS011;62001;53.366;6.636;2022-07-04T14:20:44;2.25;;;0.85;;
52940;SDS011;62001;53.366;6.636;2022-07-04T14:23:11;3.85;;;1.20;;
52940;SDS011;62001;53.366;6.636;2022-07-04T14:25:37;3.38;;;0.73;;
52940;SDS011;62001;53.366;6.636;2022-07-04T14:28:03;6.57;;;1.10;;
52940;SDS011;62001;53.366;6.636;2022-07-04T14:30:29;3.92;;;0.90;;
52940;SDS011;62001;53.366;6.636;2022-07-04T14:32:55;3.80;;;0.90;;
52940;SDS011;62001;53.366;6.636;2022-07-04T14:35:21;1.75;;;0.90;;
52940;SDS011;62001;53.366;6.636;2022-07-04T14:37:47;2.08;;;0.70;;
52940;SDS011;62001;53.366;6.636;2022-07-04T14:40:14;5.82;;;1.08;;
52940;SDS011;62001;53.366;6.636;2022-07-04T14:42:40;3.05;;;0.90;;
52940;SDS011;62001;53.366;6.636;2022-07-04T14:45:06;3.95;;;0.65;;
52940;SDS011;62001;53.366;6.636;2022-07-04T14:47:32;3.33;;;0.85;;
52940;SDS011;62001;53.366;6.636;2022-07-04T14:50:00;2.45;;;0.80;;
52940;SDS011;62001;53.366;6.636;2022-07-04T14:52:27;4.97;;;1.10;;
52940;SDS011;62001;53.366;6.636;2022-07-04T14:54:53;2.30;;;0.95;;
52940;SDS011;62001;53.366;6.636;2022-07-04T14:57:19;5.43;;;1.00;;
52940;SDS011;62001;53.366;6.636;2022-07-04T14:59:46;2.33;;;0.70;;
52940;SDS011;62001;53.366;6.636;2022-07-04T15:02:11;5.13;;;0.90;;
52940;SDS011;62001;53.366;6.636;2022-07-04T15:04:37;1.17;;;0.70;;
52940;SDS011;62001;53.366;6.636;2022-07-04T15:07:03;4.70;;;0.88;;
52940;SDS011;62001;53.366;6.636;2022-07-04T15:09:29;4.90;;;0.90;;
52940;SDS011;62001;53.366;6.636;2022-07-04T15:11:54;3.00;;;0.70;;
52940;SDS011;62001;53.366;6.636;2022-07-04T15:14:20;4.57;;;0.70;;
52940;SDS011;62001;53.366;6.636;2022-07-04T15:16:46;5.28;;;1.00;;
52940;SDS011;62001;53.366;6.636;2022-07-04T15:19:12;2.67;;;1.05;;